sensor_id;sensor_type;location;lat;lon;timestamp;pressure;altitude;pressure_sealevel;temperature;humidity
7026;BME280;3554;42.132;24.786;2023-03-19T00:01:27;99907.19;;;4.64;100.00
7026;BME280;3554;42.132;24.786;2023-03-19T00:03:55;99976.88;;;5.02;100.00
7026;BME280;3554;42.132;24.786;2023-03-19T00:06:23;99975.97;;;5.04;100.00
7026;BME280;3554;42.132;24.786;2023-03-19T00:08:50;99973.28;;;5.13;100.00
7026;BME280;3554;42.132;24.786;2023-03-19T00:11:17;99967.25;;;5.13;100.00
7026;BME280;3554;42.132;24.786;2023-03-19T00:13:44;99966.28;;;5.23;100.00
7026;BME280;3554;42.132;24.786;2023-03-19T00:16:11;99963.69;;;5.24;100.00
7026;BME280;3554;42.132;24.786;2023-03-19T00:18:37;99962.13;;;5.07;100.00
7026;BME280;3554;42.132;24.786;2023-03-19T00:21:05;99955.25;;;5.01;100.00
7026;BME280;3554;42.132;24.786;2023-03-19T00:23:34;99944.22;;;4.78;100.00
7026;BME280;3554;42.132;24.786;2023-03-19T00:26:01;99947.50;;;4.97;100.00
7026;BME280;3554;42.132;24.786;2023-03-19T00:28:28;99960.63;;;4.80;100.00
7026;BME280;3554;42.132;24.786;2023-03-19T00:30:55;99939.88;;;4.82;100.00
7026;BME280;3554;42.132;24.786;2023-03-19T00:33:22;99952.78;;;4.86;100.00
7026;BME280;3554;42.132;24.786;2023-03-19T00:35:50;99938.09;;;4.85;100.00
7026;BME280;3554;42.132;24.786;2023-03-19T00:38:17;99944.19;;;4.81;100.00
7026;BME280;3554;42.132;24.786;2023-03-19T00:40:45;99936.41;;;4.81;100.00
7026;BME280;3554;42.132;24.786;2023-03-19T00:43:13;99939.09;;;4.69;100.00
7026;BME280;3554;42.132;24.786;2023-03-19T00:45:40;99922.72;;;4.61;100.00
7026;BME280;3554;42.132;24.786;2023-03-19T00:48:07;99925.56;;;4.34;100.00
7026;BME280;3554;42.132;24.786;2023-03-19T00:50:34;99927.28;;;4.33;100.00
7026;BME280;3554;42.132;24.786;2023-03-19T00:53:01;99933.25;;;4.42;100.00
7026;BME280;3554;42.132;24.786;2023-03-19T00:55:28;99932.41;;;4.41;100.00
7026;BME280;3554;42.132;24.786;2023-03-19T00:57:56;99936.69;;;4.44;100.00
7026;BME280;3554;42.132;24.786;2023-03-19T01:00:23;99923.59;;;4.62;100.00
7026;BME280;3554;42.132;24.786;2023-03-19T01:02:49;99927.00;;;4.67;100.00
7026;BME280;3554;42.132;24.786;2023-03-19T01:05:16;99926.09;;;4.75;100.00
7026;BME280;3554;42.132;24.786;2023-03-19T01:07:43;99928.53;;;4.95;100.00
7026;BME280;3554;42.132;24.786;2023-03-19T01:10:10;99920.75;;;4.92;100.00
7026;BME280;3554;42.132;24.786;2023-03-19T01:12:37;99923.38;;;4.89;100.00
7026;BME280;3554;42.132;24.786;2023-03-19T01:15:07;99926.84;;;4.89;100.00
7026;BME280;3554;42.132;24.786;2023-03-19T01:17:34;99902.66;;;4.84;100.00
7026;BME280;3554;42.132;24.786;2023-03-19T01:20:01;99914.09;;;4.62;100.00
7026;BME280;3554;42.132;24.786;2023-03-19T01:22:28;99926.19;;;4.62;100.00
7026;BME280;3554;42.132;24.786;2023-03-19T01:24:55;99914.22;;;4.50;100.00
7026;BME280;3554;42.132;24.786;2023-03-19T01:27:22;99916.75;;;4.55;100.00
7026;BME280;3554;42.132;24.786;2023-03-19T01:29:49;99919.25;;;4.65;100.00
7026;BME280;3554;42.132;24.786;2023-03-19T01:32:17;99920.09;;;4.69;100.00
7026;BME280;3554;42.132;24.786;2023-03-19T01:34:44;99916.56;;;4.76;100.00
7026;BME280;3554;42.132;24.786;2023-03-19T01:37:11;99923.50;;;4.77;100.00
7026;BME280;3554;42.132;24.786;2023-03-19T01:39:38;99925.06;;;4.91;100.00
7026;BME280;3554;42.132;24.786;2023-03-19T01:42:05;99921.75;;;4.76;100.00
7026;BME280;3554;42.132;24.786;2023-03-19T01:44:34;99925.19;;;4.78;100.00
7026;BME280;3554;42.132;24.786;2023-03-19T01:47:05;99926.19;;;4.63;100.00
7026;BME280;3554;42.132;24.786;2023-03-19T01:49:34;99922.75;;;4.60;100.00
7026;BME280;3554;42.132;24.786;2023-03-19T01:52:03;99921.06;;;4.57;100.00
7026;BME280;3554;42.132;24.786;2023-03-19T01:54:32;99921.94;;;4.55;100.00
7026;BME280;3554;42.132;24.786;2023-03-19T01:57:02;99908.13;;;4.56;100.00
7026;BME280;3554;42.132;24.786;2023-03-19T01:59:35;99921.91;;;4.58;100.00
7026;BME280;3554;42.132;24.786;2023-03-19T02:02:05;99929.50;;;4.82;100.00
7026;BME280;3554;42.132;24.786;2023-03-19T02:04:38;99932.00;;;4.91;100.00
7026;BME280;3554;42.132;24.786;2023-03-19T02:07:07;99932.06;;;4.83;100.00
7026;BME280;3554;42.132;24.786;2023-03-19T02:09:35;99933.66;;;4.98;100.00
7026;BME280;3554;42.132;24.786;2023-03-19T02:12:03;99931.19;;;4.83;100.00
7026;BME280;3554;42.132;24.786;2023-03-19T02:14:31;99929.47;;;4.85;100.00
7026;BME280;3554;42.132;24.786;2023-03-19T02:16:58;99936.31;;;4.92;100.00
7026;BME280;3554;42.132;24.786;2023-03-19T02:19:27;99942.19;;;5.12;100.00
7026;BME280;3554;42.132;24.786;2023-03-19T02:21:58;99933.41;;;5.23;100.00
7026;BME280;3554;42.132;24.786;2023-03-19T02:24:31;99936.06;;;5.19;100.00
7026;BME280;3554;42.132;24.786;2023-03-19T02:27:01;99957.50;;;5.36;100.00
7026;BME280;3554;42.132;24.786;2023-03-19T02:29:28;99960.81;;;5.50;100.00
7026;BME280;3554;42.132;24.786;2023-03-19T02:31:54;99964.22;;;5.57;100.00
7026;BME280;3554;42.132;24.786;2023-03-19T02:34:42;99969.31;;;5.63;100.00
7026;BME280;3554;42.132;24.786;2023-03-19T02:37:15;99958.16;;;5.55;100.00
7026;BME280;3554;42.132;24.786;2023-03-19T02:39:49;99889.28;;;5.23;100.00
7026;BME280;3554;42.132;24.786;2023-03-19T02:42:21;99978.78;;;5.68;100.00
7026;BME280;3554;42.132;24.786;2023-03-19T02:44:49;99970.41;;;5.42;100.00
7026;BME280;3554;42.132;24.786;2023-03-19T02:47:16;99974.72;;;5.46;100.00
7026;BME280;3554;42.132;24.786;2023-03-19T02:49:43;99960.84;;;5.47;100.00
7026;BME280;3554;42.132;24.786;2023-03-19T02:52:10;99972.22;;;5.37;100.00
7026;BME280;3554;42.132;24.786;2023-03-19T02:54:37;99960.97;;;5.36;100.00
7026;BME280;3554;42.132;24.786;2023-03-19T02:57:04;99937.72;;;5.26;100.00
7026;BME280;3554;42.132;24.786;2023-03-19T02:59:32;99954.13;;;5.29;100.00
7026;BME280;3554;42.132;24.786;2023-03-19T03:02:00;99960.31;;;5.18;100.00
7026;BME280;3554;42.132;24.786;2023-03-19T03:04:27;99958.59;;;5.11;100.00
7026;BME280;3554;42.132;24.786;2023-03-19T03:06:53;99962.06;;;5.11;100.00
7026;BME280;3554;42.132;24.786;2023-03-19T03:09:21;99963.00;;;5.04;100.00
7026;BME280;3554;42.132;24.786;2023-03-19T03:11:48;99963.81;;;5.09;100.00
7026;BME280;3554;42.132;24.786;2023-03-19T03:14:15;99940.56;;;4.99;100.00
7026;BME280;3554;42.132;24.786;2023-03-19T03:16:43;99953.69;;;4.82;100.00
7026;BME280;3554;42.132;24.786;2023-03-19T03:19:10;99969.06;;;5.05;100.00
7026;BME280;3554;42.132;24.786;2023-03-19T03:21:37;99971.66;;;5.03;100.00
7026;BME280;3554;42.132;24.786;2023-03-19T03:24:04;99968.16;;;5.06;100.00
7026;BME280;3554;42.132;24.786;2023-03-19T03:26:31;99974.19;;;5.12;100.00
7026;BME280;3554;42.132;24.786;2023-03-19T03:28:59;99978.41;;;5.22;100.00
7026;BME280;3554;42.132;24.786;2023-03-19T03:31:25;99974.09;;;5.23;100.00
7026;BME280;3554;42.132;24.786;2023-03-19T03:33:54;99980.16;;;5.20;100.00
7026;BME280;3554;42.132;24.786;2023-03-19T03:36:20;99983.63;;;5.19;100.00
7026;BME280;3554;42.132;24.786;2023-03-19T03:38:47;99978.31;;;5.31;100.00
7026;BME280;3554;42.132;24.786;2023-03-19T03:41:14;99978.34;;;5.28;100.00
7026;BME280;3554;42.132;24.786;2023-03-19T03:43:41;99978.28;;;5.33;100.00
7026;BME280;3554;42.132;24.786;2023-03-19T03:46:08;99986.06;;;5.34;100.00
7026;BME280;3554;42.132;24.786;2023-03-19T03:48:35;99974.84;;;5.32;100.00
7026;BME280;3554;42.132;24.786;2023-03-19T03:51:03;99980.75;;;5.45;100.00
7026;BME280;3554;42.132;24.786;2023-03-19T03:53:30;99973.16;;;5.27;100.00
7026;BME280;3554;42.132;24.786;2023-03-19T03:55:57;99991.25;;;5.34;100.00
7026;BME280;3554;42.132;24.786;2023-03-19T03:58:24;99980.06;;;5.29;100.00
7026;BME280;3554;42.132;24.786;2023-03-19T04:00:50;99989.44;;;5.44;100.00
7026;BME280;3554;42.132;24.786;2023-03-19T04:03:19;99980.97;;;5.25;100.00
7026;BME280;3554;42.132;24.786;2023-03-19T04:05:46;99986.22;;;5.19;100.00
7026;BME280;3554;42.132;24.786;2023-03-19T04:08:14;99981.06;;;5.15;100.00
7026;BME280;3554;42.132;24.786;2023-03-19T04:10:42;99956.13;;;5.02;100.00
7026;BME280;3554;42.132;24.786;2023-03-19T04:13:10;99991.44;;;5.15;100.00
7026;BME280;3554;42.132;24.786;2023-03-19T04:15:37;99992.22;;;5.26;100.00
7026;BME280;3554;42.132;24.786;2023-03-19T04:18:04;99993.00;;;5.32;100.00
7026;BME280;3554;42.132;24.786;2023-03-19T04:20:30;99987.03;;;5.24;100.00
7026;BME280;3554;42.132;24.786;2023-03-19T04:22:57;99988.84;;;5.18;100.00
7026;BME280;3554;42.132;24.786;2023-03-19T04:25:25;99990.56;;;5.17;100.00
7026;BME280;3554;42.132;24.786;2023-03-19T04:27:52;99981.88;;;5.21;100.00
7026;BME280;3554;42.132;24.786;2023-03-19T04:30:19;99990.59;;;5.16;100.00
7026;BME280;3554;42.132;24.786;2023-03-19T04:32:46;99999.31;;;5.04;100.00
7026;BME280;3554;42.132;24.786;2023-03-19T04:35:13;99996.69;;;5.06;100.00
7026;BME280;3554;42.132;24.786;2023-03-19T04:37:40;99987.09;;;5.17;100.00
7026;BME280;3554;42.132;24.786;2023-03-19T04:40:08;99988.81;;;5.16;100.00
7026;BME280;3554;42.132;24.786;2023-03-19T04:42:38;99996.75;;;5.03;100.00
7026;BME280;3554;42.132;24.786;2023-03-19T04:45:06;99989.88;;;4.96;100.00
7026;BME280;3554;42.132;24.786;2023-03-19T04:47:33;99956.38;;;4.73;100.00
7026;BME280;3554;42.132;24.786;2023-03-19T04:50:00;99978.63;;;4.95;100.00
7026;BME280;3554;42.132;24.786;2023-03-19T04:52:27;99998.44;;;5.04;100.00
7026;BME280;3554;42.132;24.786;2023-03-19T04:54:55;99996.69;;;5.09;100.00
7026;BME280;3554;42.132;24.786;2023-03-19T04:57:22;100003.59;;;5.10;100.00
7026;BME280;3554;42.132;24.786;2023-03-19T04:59:50;100002.72;;;5.14;100.00
7026;BME280;3554;42.132;24.786;2023-03-19T05:02:17;99999.13;;;5.28;100.00
7026;BME280;3554;42.132;24.786;2023-03-19T05:04:43;100004.94;;;5.48;100.00
7026;BME280;3554;42.132;24.786;2023-03-19T05:07:10;100012.00;;;5.39;100.00
7026;BME280;3554;42.132;24.786;2023-03-19T05:09:37;100011.81;;;5.54;100.00
7026;BME280;3554;42.132;24.786;2023-03-19T05:12:05;100022.91;;;5.73;100.00
7026;BME280;3554;42.132;24.786;2023-03-19T05:14:32;100013.44;;;5.67;100.00
7026;BME280;3554;42.132;24.786;2023-03-19T05:17:01;100022.81;;;5.79;100.00
7026;BME280;3554;42.132;24.786;2023-03-19T05:19:27;100012.66;;;5.58;100.00
7026;BME280;3554;42.132;24.786;2023-03-19T05:21:54;100024.81;;;5.54;100.00
7026;BME280;3554;42.132;24.786;2023-03-19T05:24:22;100025.81;;;5.42;100.00
7026;BME280;3554;42.132;24.786;2023-03-19T05:26:49;100018.88;;;5.40;100.00
7026;BME280;3554;42.132;24.786;2023-03-19T05:29:15;100020.59;;;5.42;100.00
7026;BME280;3554;42.132;24.786;2023-03-19T05:31:42;100019.59;;;5.56;100.00
7026;BME280;3554;42.132;24.786;2023-03-19T05:34:10;100023.94;;;5.57;100.00
7026;BME280;3554;42.132;24.786;2023-03-19T05:36:37;100027.31;;;5.63;100.00
7026;BME280;3554;42.132;24.786;2023-03-19T05:39:04;100029.88;;;5.68;100.00
7026;BME280;3554;42.132;24.786;2023-03-19T05:41:32;100033.13;;;5.88;100.00
7026;BME280;3554;42.132;24.786;2023-03-19T05:43:59;100035.78;;;5.79;100.00
7026;BME280;3554;42.132;24.786;2023-03-19T05:46:26;100043.59;;;5.80;100.00
7026;BME280;3554;42.132;24.786;2023-03-19T05:48:52;100039.16;;;5.94;100.00
7026;BME280;3554;42.132;24.786;2023-03-19T05:51:21;100052.03;;;6.03;100.00
7026;BME280;3554;42.132;24.786;2023-03-19T05:53:47;100048.47;;;6.10;100.00
7026;BME280;3554;42.132;24.786;2023-03-19T05:56:14;100052.75;;;6.14;100.00
7026;BME280;3554;42.132;24.786;2023-03-19T05:58:41;100059.69;;;6.14;100.00
7026;BME280;3554;42.132;24.786;2023-03-19T06:01:08;100056.84;;;6.35;100.00
7026;BME280;3554;42.132;24.786;2023-03-19T06:03:35;100064.75;;;6.24;100.00
7026;BME280;3554;42.132;24.786;2023-03-19T06:06:02;100058.63;;;6.30;100.00
7026;BME280;3554;42.132;24.786;2023-03-19T06:08:30;100060.44;;;6.23;100.00
7026;BME280;3554;42.132;24.786;2023-03-19T06:10:57;100061.44;;;6.13;100.00
7026;BME280;3554;42.132;24.786;2023-03-19T06:13:24;100013.25;;;5.85;100.00
7026;BME280;3554;42.132;24.786;2023-03-19T06:15:51;100069.91;;;6.27;100.00
7026;BME280;3554;42.132;24.786;2023-03-19T06:18:18;100072.66;;;6.17;100.00
7026;BME280;3554;42.132;24.786;2023-03-19T06:20:45;100064.47;;;6.47;100.00
7026;BME280;3554;42.132;24.786;2023-03-19T06:23:12;100059.84;;;6.69;100.00
7026;BME280;3554;42.132;24.786;2023-03-19T06:25:40;100057.69;;;6.96;100.00
7026;BME280;3554;42.132;24.786;2023-03-19T06:28:07;100062.72;;;7.08;100.00
7026;BME280;3554;42.132;24.786;2023-03-19T06:30:34;100051.09;;;7.29;100.00
7026;BME280;3554;42.132;24.786;2023-03-19T06:33:01;100058.88;;;7.30;100.00
7026;BME280;3554;42.132;24.786;2023-03-19T06:35:28;100051.97;;;7.29;100.00
7026;BME280;3554;42.132;24.786;2023-03-19T06:37:55;100052.78;;;7.33;100.00
7026;BME280;3554;42.132;24.786;2023-03-19T06:40:21;100058.53;;;7.51;100.00
7026;BME280;3554;42.132;24.786;2023-03-19T06:42:50;100052.34;;;7.57;100.00
7026;BME280;3554;42.132;24.786;2023-03-19T06:45:17;100054.88;;;7.62;100.00
7026;BME280;3554;42.132;24.786;2023-03-19T06:47:45;100042.72;;;7.60;100.00
7026;BME280;3554;42.132;24.786;2023-03-19T06:50:13;100054.47;;;7.84;100.00
7026;BME280;3554;42.132;24.786;2023-03-19T06:52:40;100055.78;;;8.05;100.00
7026;BME280;3554;42.132;24.786;2023-03-19T06:55:08;100054.34;;;7.90;100.00
7026;BME280;3554;42.132;24.786;2023-03-19T06:57:35;100055.00;;;8.03;100.00
7026;BME280;3554;42.132;24.786;2023-03-19T07:00:05;100052.81;;;8.26;100.00
7026;BME280;3554;42.132;24.786;2023-03-19T07:02:34;100056.13;;;8.34;100.00
7026;BME280;3554;42.132;24.786;2023-03-19T07:05:01;100043.72;;;8.45;100.00
7026;BME280;3554;42.132;24.786;2023-03-19T07:07:28;100050.31;;;8.61;100.00
7026;BME280;3554;42.132;24.786;2023-03-19T07:09:55;100053.19;;;8.87;100.00
7026;BME280;3554;42.132;24.786;2023-03-19T07:12:22;100048.59;;;8.98;100.00
7026;BME280;3554;42.132;24.786;2023-03-19T07:14:52;100050.03;;;9.10;100.00
7026;BME280;3554;42.132;24.786;2023-03-19T07:17:22;100031.13;;;9.00;100.00
7026;BME280;3554;42.132;24.786;2023-03-19T07:19:49;100022.81;;;9.20;100.00
7026;BME280;3554;42.132;24.786;2023-03-19T07:22:17;100041.72;;;9.31;100.00
7026;BME280;3554;42.132;24.786;2023-03-19T07:24:44;100014.59;;;9.35;100.00
7026;BME280;3554;42.132;24.786;2023-03-19T07:27:11;100038.31;;;9.61;100.00
7026;BME280;3554;42.132;24.786;2023-03-19T07:29:37;100048.78;;;9.61;100.00
7026;BME280;3554;42.132;24.786;2023-03-19T07:32:05;100038.00;;;9.73;96.65
7026;BME280;3554;42.132;24.786;2023-03-19T07:34:33;100023.03;;;9.78;95.65
7026;BME280;3554;42.132;24.786;2023-03-19T07:37:00;100042.50;;;10.00;90.39
7026;BME280;3554;42.132;24.786;2023-03-19T07:39:27;100032.03;;;9.99;88.26
7026;BME280;3554;42.132;24.786;2023-03-19T07:41:53;100029.78;;;10.19;89.54
7026;BME280;3554;42.132;24.786;2023-03-19T07:44:20;100032.16;;;10.26;88.18
7026;BME280;3554;42.132;24.786;2023-03-19T07:46:47;100040.44;;;10.42;86.77
7026;BME280;3554;42.132;24.786;2023-03-19T07:49:14;99991.50;;;10.16;85.86
7026;BME280;3554;42.132;24.786;2023-03-19T07:51:42;100026.66;;;10.64;87.19
7026;BME280;3554;42.132;24.786;2023-03-19T07:54:09;100036.19;;;10.67;83.36
7026;BME280;3554;42.132;24.786;2023-03-19T07:56:35;100035.75;;;10.80;84.29
7026;BME280;3554;42.132;24.786;2023-03-19T07:59:02;100031.38;;;11.09;82.83
7026;BME280;3554;42.132;24.786;2023-03-19T08:01:30;100027.19;;;11.03;80.78
7026;BME280;3554;42.132;24.786;2023-03-19T08:03:57;100035.06;;;11.29;79.58
7026;BME280;3554;42.132;24.786;2023-03-19T08:06:24;100030.09;;;11.46;78.24
7026;BME280;3554;42.132;24.786;2023-03-19T08:08:52;100035.22;;;11.51;76.93
7026;BME280;3554;42.132;24.786;2023-03-19T08:11:19;100030.16;;;11.45;73.96
7026;BME280;3554;42.132;24.786;2023-03-19T08:13:46;100021.53;;;11.41;77.75
7026;BME280;3554;42.132;24.786;2023-03-19T08:16:12;100025.47;;;11.54;76.22
7026;BME280;3554;42.132;24.786;2023-03-19T08:18:39;100022.31;;;11.71;74.67
7026;BME280;3554;42.132;24.786;2023-03-19T08:21:06;100016.75;;;11.80;71.89
7026;BME280;3554;42.132;24.786;2023-03-19T08:23:33;99974.94;;;11.75;72.87
7026;BME280;3554;42.132;24.786;2023-03-19T08:26:02;100023.53;;;12.10;70.64
7026;BME280;3554;42.132;24.786;2023-03-19T08:28:28;100024.38;;;12.11;69.06
7026;BME280;3554;42.132;24.786;2023-03-19T08:30:55;100017.22;;;12.14;69.22
7026;BME280;3554;42.132;24.786;2023-03-19T08:33:22;100006.94;;;12.33;69.44
7026;BME280;3554;42.132;24.786;2023-03-19T08:35:49;100012.78;;;12.39;68.39
7026;BME280;3554;42.132;24.786;2023-03-19T08:38:16;100009.34;;;12.39;66.30
7026;BME280;3554;42.132;24.786;2023-03-19T08:40:44;100000.66;;;12.37;67.12
7026;BME280;3554;42.132;24.786;2023-03-19T08:43:12;99997.22;;;12.58;68.70
7026;BME280;3554;42.132;24.786;2023-03-19T08:45:39;100008.72;;;12.54;61.04
7026;BME280;3554;42.132;24.786;2023-03-19T08:48:06;99996.56;;;12.51;61.95
7026;BME280;3554;42.132;24.786;2023-03-19T08:50:32;99971.38;;;12.47;63.83
7026;BME280;3554;42.132;24.786;2023-03-19T08:53:00;99996.72;;;12.70;63.92
7026;BME280;3554;42.132;24.786;2023-03-19T08:55:26;99998.69;;;12.65;62.80
7026;BME280;3554;42.132;24.786;2023-03-19T08:57:53;99990.91;;;12.83;65.33
7026;BME280;3554;42.132;24.786;2023-03-19T09:00:22;99983.47;;;13.16;64.91
7026;BME280;3554;42.132;24.786;2023-03-19T09:02:49;99992.59;;;13.08;60.43
7026;BME280;3554;42.132;24.786;2023-03-19T09:05:16;99985.16;;;13.19;61.93
7026;BME280;3554;42.132;24.786;2023-03-19T09:07:46;99986.34;;;13.10;58.36
7026;BME280;3554;42.132;24.786;2023-03-19T09:10:13;99980.34;;;13.28;62.03
7026;BME280;3554;42.132;24.786;2023-03-19T09:12:40;99971.75;;;13.45;61.70
7026;BME280;3554;42.132;24.786;2023-03-19T09:15:07;99972.97;;;13.56;58.74
7026;BME280;3554;42.132;24.786;2023-03-19T09:17:35;99962.28;;;13.61;58.21
7026;BME280;3554;42.132;24.786;2023-03-19T09:20:03;99955.56;;;13.34;55.94
7026;BME280;3554;42.132;24.786;2023-03-19T09:22:31;99965.22;;;13.33;57.80
7026;BME280;3554;42.132;24.786;2023-03-19T09:24:57;99958.66;;;13.43;59.83
7026;BME280;3554;42.132;24.786;2023-03-19T09:27:24;99954.97;;;13.67;57.22
7026;BME280;3554;42.132;24.786;2023-03-19T09:29:51;99946.41;;;13.82;55.83
7026;BME280;3554;42.132;24.786;2023-03-19T09:32:18;99957.50;;;13.89;55.07
7026;BME280;3554;42.132;24.786;2023-03-19T09:34:46;99947.59;;;14.14;56.60
7026;BME280;3554;42.132;24.786;2023-03-19T09:37:13;99956.19;;;14.18;54.43
7026;BME280;3554;42.132;24.786;2023-03-19T09:39:40;99952.47;;;13.44;52.09
7026;BME280;3554;42.132;24.786;2023-03-19T09:42:17;99928.66;;;13.07;54.12
7026;BME280;3554;42.132;24.786;2023-03-19T09:44:50;99947.16;;;13.26;55.10
7026;BME280;3554;42.132;24.786;2023-03-19T09:47:26;99937.03;;;13.57;55.89
7026;BME280;3554;42.132;24.786;2023-03-19T09:49:58;99875.38;;;13.44;53.59
7026;BME280;3554;42.132;24.786;2023-03-19T09:52:33;99925.25;;;13.65;56.69
7026;BME280;3554;42.132;24.786;2023-03-19T09:55:05;99887.50;;;13.85;55.96
7026;BME280;3554;42.132;24.786;2023-03-19T09:57:37;99924.53;;;14.19;56.96
7026;BME280;3554;42.132;24.786;2023-03-19T10:00:18;99916.16;;;14.11;54.12
7026;BME280;3554;42.132;24.786;2023-03-19T10:02:48;99908.84;;;14.36;59.76
7026;BME280;3554;42.132;24.786;2023-03-19T10:05:24;99903.94;;;14.29;55.87
7026;BME280;3554;42.132;24.786;2023-03-19T10:08:13;99859.16;;;13.53;57.81
7026;BME280;3554;42.132;24.786;2023-03-19T10:11:02;99899.56;;;14.28;58.97
7026;BME280;3554;42.132;24.786;2023-03-19T10:13:46;99894.81;;;14.36;60.28
7026;BME280;3554;42.132;24.786;2023-03-19T10:16:20;99894.31;;;14.63;59.99
7026;BME280;3554;42.132;24.786;2023-03-19T10:18:49;99891.56;;;14.66;58.10
7026;BME280;3554;42.132;24.786;2023-03-19T10:21:22;99870.25;;;14.71;57.05
7026;BME280;3554;42.132;24.786;2023-03-19T10:23:52;99849.69;;;14.60;56.85
7026;BME280;3554;42.132;24.786;2023-03-19T10:26:26;99871.44;;;14.82;58.23
7026;BME280;3554;42.132;24.786;2023-03-19T10:29:01;99862.50;;;14.32;60.14
7026;BME280;3554;42.132;24.786;2023-03-19T10:31:39;99864.38;;;14.47;60.68
7026;BME280;3554;42.132;24.786;2023-03-19T10:34:16;99854.72;;;14.48;60.36
7026;BME280;3554;42.132;24.786;2023-03-19T10:36:48;99842.56;;;14.45;61.40
7026;BME280;3554;42.132;24.786;2023-03-19T10:39:15;99822.34;;;14.63;63.98
7026;BME280;3554;42.132;24.786;2023-03-19T10:41:49;99838.16;;;14.97;62.24
7026;BME280;3554;42.132;24.786;2023-03-19T10:44:26;99829.69;;;15.25;62.72
7026;BME280;3554;42.132;24.786;2023-03-19T10:46:57;99819.47;;;15.01;59.88
7026;BME280;3554;42.132;24.786;2023-03-19T10:49:24;99828.47;;;15.15;60.60
7026;BME280;3554;42.132;24.786;2023-03-19T10:51:55;99808.41;;;15.28;60.63
7026;BME280;3554;42.132;24.786;2023-03-19T10:54:25;99807.31;;;15.49;59.48
7026;BME280;3554;42.132;24.786;2023-03-19T10:56:54;99811.84;;;15.30;59.33
7026;BME280;3554;42.132;24.786;2023-03-19T10:59:32;99812.34;;;15.36;59.17
7026;BME280;3554;42.132;24.786;2023-03-19T11:02:14;99804.25;;;15.24;61.92
7026;BME280;3554;42.132;24.786;2023-03-19T11:04:41;99799.13;;;15.38;63.74
7026;BME280;3554;42.132;24.786;2023-03-19T11:07:12;99771.66;;;15.42;63.70
7026;BME280;3554;42.132;24.786;2023-03-19T11:09:40;99789.56;;;15.35;62.08
7026;BME280;3554;42.132;24.786;2023-03-19T11:12:16;99785.69;;;15.42;62.91
7026;BME280;3554;42.132;24.786;2023-03-19T11:14:46;99775.78;;;15.30;62.82
7026;BME280;3554;42.132;24.786;2023-03-19T11:17:20;99765.66;;;15.38;62.91
7026;BME280;3554;42.132;24.786;2023-03-19T11:19:50;99751.25;;;15.28;62.94
7026;BME280;3554;42.132;24.786;2023-03-19T11:22:22;99769.38;;;15.51;63.14
7026;BME280;3554;42.132;24.786;2023-03-19T11:24:51;99737.50;;;15.06;65.01
7026;BME280;3554;42.132;24.786;2023-03-19T11:27:25;99754.91;;;15.43;65.66
7026;BME280;3554;42.132;24.786;2023-03-19T11:29:53;99755.78;;;15.59;66.90
7026;BME280;3554;42.132;24.786;2023-03-19T11:35:20;99750.50;;;15.59;62.90
7026;BME280;3554;42.132;24.786;2023-03-19T11:37:53;99687.50;;;15.53;64.09
7026;BME280;3554;42.132;24.786;2023-03-19T11:40:30;99736.75;;;15.99;62.23
7026;BME280;3554;42.132;24.786;2023-03-19T11:43:36;99737.03;;;15.94;63.04
7026;BME280;3554;42.132;24.786;2023-03-19T11:46:13;99733.88;;;16.03;63.36
7026;BME280;3554;42.132;24.786;2023-03-19T11:49:02;99727.81;;;16.01;62.94
7026;BME280;3554;42.132;24.786;2023-03-19T11:51:37;99727.91;;;15.84;63.15
7026;BME280;3554;42.132;24.786;2023-03-19T11:54:16;99724.59;;;15.96;63.41
7026;BME280;3554;42.132;24.786;2023-03-19T11:56:47;99728.47;;;16.21;63.03
7026;BME280;3554;42.132;24.786;2023-03-19T11:59:38;99729.91;;;16.26;63.77
7026;BME280;3554;42.132;24.786;2023-03-19T12:02:32;99721.84;;;16.43;64.79
7026;BME280;3554;42.132;24.786;2023-03-19T12:05:18;99729.94;;;16.40;61.24
7026;BME280;3554;42.132;24.786;2023-03-19T12:07:56;99717.50;;;16.13;62.27
7026;BME280;3554;42.132;24.786;2023-03-19T12:10:38;99719.28;;;16.12;63.03
7026;BME280;3554;42.132;24.786;2023-03-19T12:13:19;99720.44;;;16.22;62.58
7026;BME280;3554;42.132;24.786;2023-03-19T12:15:54;99721.25;;;16.38;63.88
7026;BME280;3554;42.132;24.786;2023-03-19T12:21:19;99708.16;;;16.37;62.16
7026;BME280;3554;42.132;24.786;2023-03-19T12:24:00;99711.38;;;16.12;62.65
7026;BME280;3554;42.132;24.786;2023-03-19T12:26:37;99706.38;;;16.22;63.22
7026;BME280;3554;42.132;24.786;2023-03-19T12:29:12;99683.09;;;16.14;62.59
7026;BME280;3554;42.132;24.786;2023-03-19T12:34:34;99703.16;;;16.62;62.51
7026;BME280;3554;42.132;24.786;2023-03-19T12:37:13;99670.19;;;16.53;62.74
7026;BME280;3554;42.132;24.786;2023-03-19T12:39:47;99685.78;;;16.72;61.70
7026;BME280;3554;42.132;24.786;2023-03-19T12:42:18;99682.59;;;16.81;60.66
7026;BME280;3554;42.132;24.786;2023-03-19T12:44:49;99677.03;;;16.85;60.68
7026;BME280;3554;42.132;24.786;2023-03-19T12:47:22;99676.06;;;17.00;62.56
7026;BME280;3554;42.132;24.786;2023-03-19T12:49:53;99676.72;;;16.90;60.74
7026;BME280;3554;42.132;24.786;2023-03-19T12:52:25;99669.66;;;16.90;60.70
7026;BME280;3554;42.132;24.786;2023-03-19T12:54:57;99650.59;;;16.71;61.00
7026;BME280;3554;42.132;24.786;2023-03-19T12:57:31;99624.38;;;16.39;61.25
7026;BME280;3554;42.132;24.786;2023-03-19T13:00:04;99651.16;;;16.76;62.83
7026;BME280;3554;42.132;24.786;2023-03-19T13:02:36;99653.59;;;16.93;60.73
7026;BME280;3554;42.132;24.786;2023-03-19T13:05:08;99656.13;;;16.95;59.65
7026;BME280;3554;42.132;24.786;2023-03-19T13:07:51;99622.53;;;16.69;60.59
7026;BME280;3554;42.132;24.786;2023-03-19T13:10:21;99647.44;;;16.93;61.05
7026;BME280;3554;42.132;24.786;2023-03-19T13:12:50;99652.28;;;17.00;61.53
7026;BME280;3554;42.132;24.786;2023-03-19T13:15:23;99641.22;;;17.08;59.77
7026;BME280;3554;42.132;24.786;2023-03-19T13:17:58;99644.88;;;17.05;60.65
7026;BME280;3554;42.132;24.786;2023-03-19T13:20:36;99639.50;;;17.07;60.79
7026;BME280;3554;42.132;24.786;2023-03-19T13:23:12;99629.44;;;16.99;61.03
7026;BME280;3554;42.132;24.786;2023-03-19T13:25:42;99637.53;;;16.96;60.87
7026;BME280;3554;42.132;24.786;2023-03-19T13:28:19;99633.97;;;16.97;60.04